Time;durP1;ratioP1;P1;durP2;ratioP2;P2;SDS_P1;SDS_P2;PMS_P1;PMS_P2;Temp;Humidity;BMP_temperature;BMP_pressure;BME280_temperature;BME280_humidity;BME280_pressure;Samples;Min_cycle;Max_cycle;Signal;HPM_P1;HPM_P2
2021/11/08 00:00:29;;;;;;;11.95;6.40;;;11.50;99.90;;;;;;5136289;27;20240;-65
2021/11/08 00:02:57;;;;;;;14.73;5.00;;;11.40;99.90;;;;;;5136885;27;20218;-65
2021/11/08 00:05:24;;;;;;;11.80;5.28;;;11.40;99.90;;;;;;5136108;27;20238;-65
2021/11/08 00:07:54;;;;;;;11.02;5.25;;;11.40;99.90;;;;;;5136800;27;20222;-65
2021/11/08 00:10:28;;;;;;;13.73;4.60;;;11.40;99.90;;;;;;5136224;27;20583;-65
2021/11/08 00:12:57;;;;;;;14.60;3.97;;;11.40;99.90;;;;;;5136719;27;20679;-65
2021/11/08 00:15:28;;;;;;;19.63;9.25;;;11.40;99.90;;;;;;5136181;27;20305;-65
2021/11/08 00:18:01;;;;;;;11.63;5.00;;;11.40;99.90;;;;;;5116924;27;20549;-65
2021/11/08 00:20:32;;;;;;;9.65;4.78;;;11.40;99.90;;;;;;5114748;27;20230;-65
2021/11/08 00:23:00;;;;;;;12.35;5.57;;;11.30;99.90;;;;;;5127138;27;20266;-65
2021/11/08 00:25:29;;;;;;;23.80;10.80;;;11.30;99.90;;;;;;5135816;27;20219;-65
2021/11/08 00:27:57;;;;;;;7.28;4.55;;;11.30;99.90;;;;;;5136435;27;20707;-65
2021/11/08 00:30:24;;;;;;;16.38;4.90;;;11.30;99.90;;;;;;5135882;27;20442;-65
2021/11/08 00:32:51;;;;;;;15.32;4.53;;;11.20;99.90;;;;;;5136169;27;20247;-66
2021/11/08 00:35:19;;;;;;;12.63;5.10;;;11.20;99.90;;;;;;5135826;27;20225;-64
2021/11/08 00:37:46;;;;;;;12.15;4.65;;;11.20;99.90;;;;;;5136157;27;20234;-64
2021/11/08 00:40:13;;;;;;;8.73;3.60;;;11.20;99.90;;;;;;5115251;27;20230;-64
2021/11/08 00:42:40;;;;;;;12.02;4.25;;;11.20;99.90;;;;;;5115034;27;20669;-65
2021/11/08 00:45:08;;;;;;;7.10;3.42;;;11.20;99.90;;;;;;5115396;27;20223;-64
2021/11/08 00:47:35;;;;;;;18.55;11.68;;;11.20;99.90;;;;;;5118972;27;20217;-65
2021/11/08 00:50:03;;;;;;;15.55;4.68;;;11.10;99.90;;;;;;5124657;27;20225;-65
2021/11/08 00:52:32;;;;;;;6.63;4.05;;;11.10;99.90;;;;;;5135396;27;20308;-65
2021/11/08 00:54:59;;;;;;;13.10;7.32;;;11.10;99.90;;;;;;5130029;27;20219;-65
2021/11/08 00:57:27;;;;;;;13.18;4.13;;;11.10;99.90;;;;;;5122717;27;20250;-65
2021/11/08 00:59:55;;;;;;;6.70;4.13;;;11.20;99.90;;;;;;5135772;27;20479;-65
2021/11/08 01:02:25;;;;;;;10.02;5.10;;;11.20;99.90;;;;;;5135218;27;20233;-65
2021/11/08 01:04:53;;;;;;;20.85;8.52;;;11.10;99.90;;;;;;5135481;27;20376;-65
2021/11/08 01:07:21;;;;;;;9.65;3.30;;;11.20;99.90;;;;;;5135397;27;20275;-64
2021/11/08 01:09:49;;;;;;;11.20;5.07;;;11.20;99.90;;;;;;5135254;27;20222;-64
2021/11/08 01:12:17;;;;;;;15.05;3.42;;;11.20;99.90;;;;;;5135342;27;20222;-64
2021/11/08 01:14:44;;;;;;;13.38;6.78;;;11.20;99.90;;;;;;5135251;27;20222;-65
2021/11/08 01:17:11;;;;;;;14.88;8.63;;;11.20;99.90;;;;;;5135241;27;20679;-65
2021/11/08 01:19:38;;;;;;;11.60;4.15;;;11.20;99.90;;;;;;5134797;27;20675;-65
2021/11/08 01:22:13;;;;;;;15.57;6.15;;;11.30;99.90;;;;;;5135379;27;20230;-65
2021/11/08 01:24:41;;;;;;;41.55;19.23;;;11.30;99.90;;;;;;5134667;27;20245;-65
2021/11/08 01:27:09;;;;;;;10.50;3.50;;;11.30;99.90;;;;;;5135255;27;20221;-65
2021/11/08 01:29:36;;;;;;;9.77;3.55;;;11.30;99.90;;;;;;5134754;27;20750;-65
2021/11/08 01:32:06;;;;;;;14.25;6.82;;;11.30;99.90;;;;;;5134128;27;20229;-65
2021/11/08 01:34:33;;;;;;;10.68;3.22;;;11.30;99.90;;;;;;5134644;27;20615;-65
2021/11/08 01:37:01;;;;;;;10.02;3.42;;;11.30;99.90;;;;;;5135155;27;20214;-65
2021/11/08 01:39:32;;;;;;;12.43;5.05;;;11.30;99.90;;;;;;5134219;27;20218;-65
2021/11/08 01:41:59;;;;;;;10.38;3.70;;;11.30;99.90;;;;;;5135093;27;20616;-64
2021/11/08 01:44:28;;;;;;;11.32;3.95;;;11.30;99.90;;;;;;5134597;27;20245;-64
2021/11/08 01:46:56;;;;;;;15.60;5.65;;;11.30;99.90;;;;;;5134451;27;20243;-65
2021/11/08 01:49:23;;;;;;;11.77;4.13;;;11.40;99.90;;;;;;5117457;27;20209;-64
2021/11/08 01:51:51;;;;;;;11.60;5.03;;;11.40;99.90;;;;;;5134820;27;20225;-64
2021/11/08 01:54:19;;;;;;;9.50;4.03;;;11.30;99.90;;;;;;5134473;27;20290;-66
2021/11/08 01:56:46;;;;;;;9.20;5.00;;;11.20;99.90;;;;;;5115931;27;20231;-65
2021/11/08 01:59:13;;;;;;;5.80;3.22;;;11.20;99.90;;;;;;5134540;27;20233;-66
2021/11/08 02:01:41;;;;;;;11.20;3.75;;;11.20;99.90;;;;;;5134184;27;20274;-65
2021/11/08 02:04:08;;;;;;;10.10;5.35;;;11.30;99.90;;;;;;5134405;27;20222;-65
2021/11/08 02:06:36;;;;;;;10.63;5.43;;;11.30;99.90;;;;;;5134256;27;20234;-65
2021/11/08 02:09:03;;;;;;;8.70;4.68;;;11.30;99.90;;;;;;5134442;27;21009;-65
2021/11/08 02:11:33;;;;;;;9.77;3.97;;;11.30;99.90;;;;;;5134001;27;20236;-65
2021/11/08 02:14:00;;;;;;;6.75;3.10;;;11.30;99.90;;;;;;5134138;27;20244;-65
2021/11/08 02:16:27;;;;;;;14.20;6.65;;;11.30;99.90;;;;;;5134033;27;20230;-65
2021/11/08 02:18:56;;;;;;;9.48;5.28;;;11.30;99.90;;;;;;5134046;27;20217;-65
2021/11/08 02:21:26;;;;;;;6.53;3.47;;;11.30;99.90;;;;;;5133892;27;20220;-65
2021/11/08 02:23:54;;;;;;;9.60;3.70;;;11.40;99.90;;;;;;5134134;27;20221;-65
2021/11/08 02:26:21;;;;;;;10.73;4.25;;;11.40;99.90;;;;;;5134131;27;20236;-66
2021/11/08 02:28:50;;;;;;;7.50;3.30;;;11.40;99.90;;;;;;5133607;27;20703;-65
2021/11/08 02:31:19;;;;;;;8.30;3.60;;;11.50;99.90;;;;;;5134001;27;20691;-65
2021/11/08 02:33:48;;;;;;;12.15;7.63;;;11.50;99.90;;;;;;5133662;27;20226;-65
2021/11/08 02:36:16;;;;;;;15.15;5.30;;;11.50;99.90;;;;;;5134017;27;20679;-65
2021/11/08 02:38:47;;;;;;;8.02;4.45;;;11.50;99.90;;;;;;5133362;27;20229;-66
2021/11/08 02:41:20;;;;;;;7.60;3.25;;;11.60;99.90;;;;;;5133880;27;20282;-65
2021/11/08 02:43:47;;;;;;;10.05;4.18;;;11.60;99.90;;;;;;5133372;27;20648;-65
2021/11/08 02:46:16;;;;;;;8.38;4.22;;;11.60;99.90;;;;;;5133961;27;20226;-66
2021/11/08 02:48:45;;;;;;;10.77;5.45;;;11.60;99.90;;;;;;5117435;27;20222;-65
2021/11/08 02:51:16;;;;;;;12.95;4.25;;;11.60;99.90;;;;;;5132489;27;20278;-65
2021/11/08 02:53:47;;;;;;;7.00;3.33;;;11.70;99.90;;;;;;5133288;27;20233;-65
2021/11/08 02:56:15;;;;;;;8.88;3.10;;;11.80;99.90;;;;;;5133312;27;20218;-65
2021/11/08 02:58:45;;;;;;;10.00;4.75;;;11.80;99.90;;;;;;5133237;27;20237;-65
2021/11/08 03:01:16;;;;;;;7.60;3.85;;;11.80;99.90;;;;;;5133531;27;20229;-65
2021/11/08 03:03:46;;;;;;;9.38;3.58;;;11.90;99.90;;;;;;5133257;27;20225;-65
2021/11/08 03:06:17;;;;;;;6.25;3.13;;;11.90;99.90;;;;;;5133652;27;20301;-65
2021/11/08 03:08:46;;;;;;;6.47;3.00;;;11.90;99.90;;;;;;5133226;27;20218;-66
2021/11/08 03:11:14;;;;;;;5.53;2.83;;;11.80;99.90;;;;;;5133722;27;20728;-65
2021/11/08 03:13:50;;;;;;;14.02;5.35;;;11.80;99.90;;;;;;5133153;27;20240;-65
2021/11/08 03:16:21;;;;;;;8.88;3.38;;;11.80;99.90;;;;;;5133722;27;20225;-65
2021/11/08 03:18:55;;;;;;;5.50;2.40;;;11.80;99.90;;;;;;5133167;27;20236;-66
2021/11/08 03:21:23;;;;;;;8.00;3.08;;;11.80;99.90;;;;;;5133331;27;20775;-66
2021/11/08 03:23:54;;;;;;;8.40;3.05;;;11.80;99.90;;;;;;5132845;27;20241;-66
2021/11/08 03:26:35;;;;;;;6.40;2.50;;;11.80;99.90;;;;;;5133663;27;20222;-66
2021/11/08 03:29:02;;;;;;;5.70;2.75;;;11.80;99.90;;;;;;5132624;27;20282;-64
2021/11/08 03:31:29;;;;;;;5.07;2.45;;;11.70;99.90;;;;;;5133377;27;20237;-64
2021/11/08 03:33:57;;;;;;;11.00;3.60;;;11.70;99.90;;;;;;5132950;27;20267;-65
2021/11/08 03:36:24;;;;;;;6.32;3.30;;;11.70;99.90;;;;;;5123345;27;20244;-65
2021/11/08 03:38:53;;;;;;;9.52;4.35;;;11.70;99.90;;;;;;5112253;27;20234;-66
2021/11/08 03:41:20;;;;;;;7.82;3.47;;;11.70;99.90;;;;;;5112594;27;20226;-65
2021/11/08 03:43:48;;;;;;;12.10;4.05;;;11.70;99.90;;;;;;5112690;27;20225;-65
2021/11/08 03:46:15;;;;;;;3.88;2.55;;;11.70;99.90;;;;;;5124482;27;20329;-64
2021/11/08 03:48:44;;;;;;;8.27;2.53;;;11.70;99.90;;;;;;5121961;27;20603;-65
2021/11/08 03:51:11;;;;;;;5.65;2.63;;;11.70;99.90;;;;;;5120708;27;20223;-65
2021/11/08 03:53:38;;;;;;;9.27;3.00;;;11.70;99.90;;;;;;5112512;27;20218;-64
2021/11/08 03:56:08;;;;;;;8.60;3.80;;;11.70;99.90;;;;;;5130429;27;20222;-65
2021/11/08 03:58:36;;;;;;;7.50;3.35;;;11.70;99.90;;;;;;5137112;27;20679;-65
2021/11/08 04:01:04;;;;;;;8.23;3.17;;;11.80;99.90;;;;;;5135870;27;20233;-65
2021/11/08 04:03:31;;;;;;;6.32;3.70;;;11.80;99.90;;;;;;5136839;27;20225;-65
2021/11/08 04:05:59;;;;;;;7.13;3.13;;;11.70;99.90;;;;;;5117007;27;20219;-65
2021/11/08 04:08:26;;;;;;;8.18;4.03;;;11.80;99.90;;;;;;5116137;27;20223;-65
2021/11/08 04:10:55;;;;;;;4.50;2.88;;;11.80;99.90;;;;;;5115873;27;20231;-65
2021/11/08 04:13:28;;;;;;;7.03;2.55;;;11.80;99.90;;;;;;5116117;27;20223;-65
2021/11/08 04:15:56;;;;;;;8.93;3.50;;;11.80;99.90;;;;;;5115524;27;20222;-66
2021/11/08 04:18:26;;;;;;;6.60;2.75;;;11.90;99.90;;;;;;5116213;27;20229;-65
2021/11/08 04:20:55;;;;;;;7.85;3.05;;;11.90;99.90;;;;;;5129724;27;20571;-65
2021/11/08 04:23:24;;;;;;;7.43;3.00;;;11.80;99.90;;;;;;5136324;27;20226;-66
2021/11/08 04:25:52;;;;;;;7.70;3.40;;;11.80;99.90;;;;;;5135344;27;20253;-65
2021/11/08 04:28:20;;;;;;;10.10;3.42;;;11.80;99.90;;;;;;5123781;27;20305;-65
2021/11/08 04:30:48;;;;;;;15.27;3.30;;;11.80;99.90;;;;;;5115103;27;20238;-65
2021/11/08 04:33:31;;;;;;;7.43;3.80;;;11.80;99.90;;;;;;5115662;27;20676;-65
2021/11/08 04:36:10;;;;;;;4.32;2.33;;;11.80;99.90;;;;;;5123496;27;20244;-64
2021/11/08 04:38:45;;;;;;;11.05;3.30;;;11.70;99.90;;;;;;5115777;27;20320;-65
2021/11/08 04:41:18;;;;;;;7.68;3.58;;;11.70;99.90;;;;;;5115173;27;20214;-66
2021/11/08 04:43:58;;;;;;;8.48;4.13;;;11.70;99.90;;;;;;5115607;27;20226;-65
2021/11/08 04:49:39;;;;;;;4.93;2.60;;;11.60;99.90;;;;;;5119050;27;20590;-65
2021/11/08 04:52:21;;;;;;;6.90;3.00;;;11.70;99.90;;;;;;5135717;27;20278;-66
2021/11/08 04:54:55;;;;;;;7.50;3.50;;;11.70;99.90;;;;;;5135989;27;20224;-66
2021/11/08 04:57:41;;;;;;;8.05;3.00;;;11.70;99.90;;;;;;5135226;27;20236;-66
2021/11/08 05:22:17;;;;;;;9.80;3.45;;;11.70;99.90;;;;;;5135525;27;20233;-65
2021/11/08 05:27:54;;;;;;;11.07;3.40;;;11.80;99.90;;;;;;5131389;27;20553;-65
2021/11/08 05:30:20;;;;;;;7.00;3.55;;;11.80;99.90;;;;;;5145090;27;20281;-65
2021/11/08 05:32:50;;;;;;;6.82;3.05;;;11.80;99.90;;;;;;5151729;27;20213;-66
2021/11/08 05:35:18;;;;;;;8.85;4.38;;;11.80;99.90;;;;;;5151229;27;20217;-65
2021/11/08 05:37:46;;;;;;;8.55;3.08;;;11.80;99.90;;;;;;5151812;27;20356;-65
2021/11/08 05:40:17;;;;;;;7.43;3.63;;;11.80;99.90;;;;;;5151426;27;20217;-65
2021/11/08 05:42:46;;;;;;;4.95;2.83;;;11.90;99.90;;;;;;5151293;27;20732;-65
2021/11/08 05:45:16;;;;;;;5.22;2.70;;;11.90;99.90;;;;;;5151601;27;20218;-65
2021/11/08 05:47:45;;;;;;;8.75;3.40;;;11.90;99.90;;;;;;5150888;27;20217;-65
2021/11/08 05:50:14;;;;;;;11.27;3.85;;;11.90;99.90;;;;;;5151086;27;20221;-65
2021/11/08 05:52:42;;;;;;;8.70;3.10;;;11.90;99.90;;;;;;5150792;27;20237;-64
2021/11/08 05:55:10;;;;;;;9.32;2.85;;;11.90;99.90;;;;;;5151274;27;20226;-65
2021/11/08 05:57:48;;;;;;;12.38;4.10;;;11.90;99.90;;;;;;5150697;27;20245;-65
2021/11/08 06:49:48;;;;;;;10.88;3.83;;;12.10;99.90;;;;;;5135881;27;20278;-66
2021/11/08 06:52:16;;;;;;;10.43;3.50;;;12.20;99.90;;;;;;5136408;27;20217;-65
2021/11/08 06:54:45;;;;;;;5.15;3.63;;;12.10;99.90;;;;;;5135851;27;20233;-65
2021/11/08 06:57:14;;;;;;;9.30;3.20;;;12.10;99.90;;;;;;5136069;27;20225;-65
2021/11/08 06:59:42;;;;;;;8.98;2.97;;;12.10;99.90;;;;;;5135801;27;20597;-65
2021/11/08 07:02:09;;;;;;;7.10;3.05;;;12.20;99.90;;;;;;5136363;27;20225;-65
2021/11/08 07:04:37;;;;;;;6.90;3.17;;;12.20;99.90;;;;;;5136210;27;20229;-66
2021/11/08 07:07:06;;;;;;;11.50;3.50;;;12.20;99.90;;;;;;5135626;27;20567;-66
2021/11/08 07:09:34;;;;;;;10.77;4.00;;;12.20;99.90;;;;;;5136056;27;20256;-66
2021/11/08 07:12:01;;;;;;;11.32;4.28;;;12.20;99.90;;;;;;5135570;27;20710;-65
2021/11/08 07:14:28;;;;;;;9.00;4.10;;;12.20;99.90;;;;;;5135849;27;20229;-65
2021/11/08 07:17:03;;;;;;;11.35;4.63;;;12.20;99.90;;;;;;5135554;27;20222;-65
2021/11/08 07:19:30;;;;;;;11.02;6.07;;;12.20;99.90;;;;;;5135830;27;20225;-67
2021/11/08 07:21:57;;;;;;;9.38;5.53;;;12.20;99.90;;;;;;5135462;27;20226;-65
2021/11/08 07:24:26;;;;;;;8.27;5.47;;;12.30;99.90;;;;;;5135750;27;20226;-65
2021/11/08 07:26:53;;;;;;;9.45;4.35;;;12.20;99.90;;;;;;5135311;27;20606;-65
2021/11/08 07:29:21;;;;;;;9.07;4.20;;;12.20;99.90;;;;;;5135360;27;20250;-65
2021/11/08 07:31:48;;;;;;;10.70;4.68;;;12.20;99.90;;;;;;5135346;27;20237;-66
2021/11/08 07:34:16;;;;;;;8.80;5.20;;;12.30;99.90;;;;;;5135595;27;20695;-65
2021/11/08 07:36:43;;;;;;;9.98;4.78;;;12.30;99.90;;;;;;5135062;27;20680;-66
2021/11/08 07:39:10;;;;;;;6.07;3.22;;;12.30;99.90;;;;;;5135335;27;20259;-66
2021/11/08 07:41:39;;;;;;;10.98;4.57;;;12.20;99.90;;;;;;5135530;27;20237;-66
2021/11/08 07:44:06;;;;;;;6.18;3.47;;;12.30;99.90;;;;;;5134816;27;20226;-65
2021/11/08 07:46:33;;;;;;;10.13;4.15;;;12.30;99.90;;;;;;5135402;27;20233;-65
2021/11/08 07:49:00;;;;;;;8.07;4.05;;;12.20;99.90;;;;;;5133832;27;20581;-64
2021/11/08 07:51:30;;;;;;;11.25;3.42;;;12.20;99.90;;;;;;5134962;27;20684;-65
2021/11/08 07:53:57;;;;;;;9.30;4.88;;;12.20;99.90;;;;;;5134847;27;20222;-65
2021/11/08 07:56:24;;;;;;;6.40;3.72;;;12.20;99.90;;;;;;5135154;27;20222;-65
2021/11/08 07:58:53;;;;;;;6.72;3.75;;;12.20;99.90;;;;;;5134425;27;20218;-65
2021/11/08 08:01:20;;;;;;;7.65;4.25;;;12.30;99.90;;;;;;5134983;27;20221;-65
2021/11/08 08:03:48;;;;;;;8.35;3.58;;;12.30;99.90;;;;;;5134696;27;20221;-65
2021/11/08 08:06:16;;;;;;;13.15;5.82;;;12.30;99.90;;;;;;5134928;27;20296;-64
2021/11/08 08:08:47;;;;;;;7.93;5.22;;;12.20;99.90;;;;;;5134796;27;20214;-65
2021/11/08 08:11:14;;;;;;;13.38;5.22;;;12.30;99.90;;;;;;5134594;27;20218;-65
2021/11/08 08:13:42;;;;;;;9.98;4.43;;;12.30;99.90;;;;;;5134736;27;20222;-65
2021/11/08 08:16:14;;;;;;;13.13;5.10;;;12.30;99.90;;;;;;5134290;27;20218;-66
2021/11/08 08:18:43;;;;;;;10.43;4.35;;;12.40;99.90;;;;;;5134705;27;20256;-65
2021/11/08 08:21:11;;;;;;;7.63;3.78;;;12.40;99.90;;;;;;5134194;27;20244;-65
2021/11/08 08:23:38;;;;;;;7.78;4.28;;;12.40;99.90;;;;;;5134557;27;20221;-65
2021/11/08 08:26:05;;;;;;;6.07;3.55;;;12.50;99.90;;;;;;5133869;27;20234;-65
2021/11/08 08:28:32;;;;;;;12.55;5.00;;;12.50;99.90;;;;;;5134569;27;20225;-65
2021/11/08 08:30:59;;;;;;;8.55;2.80;;;12.40;99.90;;;;;;5134098;27;20226;-65
2021/11/08 08:33:28;;;;;;;6.22;3.85;;;12.40;99.90;;;;;;5134388;27;20234;-65
2021/11/08 08:35:56;;;;;;;7.50;3.60;;;12.40;99.90;;;;;;5133941;27;20233;-65
2021/11/08 08:38:23;;;;;;;6.10;3.20;;;12.40;99.90;;;;;;5134263;27;20680;-65
2021/11/08 08:40:51;;;;;;;7.13;3.17;;;12.40;99.90;;;;;;5134279;27;20618;-65
2021/11/08 08:43:20;;;;;;;11.13;3.78;;;12.40;99.90;;;;;;5133808;27;20249;-66
2021/11/08 08:45:48;;;;;;;8.38;3.15;;;12.40;99.90;;;;;;5134333;27;20218;-65
2021/11/08 08:48:15;;;;;;;11.50;3.78;;;12.40;99.90;;;;;;5133659;27;20225;-65
2021/11/08 08:50:44;;;;;;;7.80;4.30;;;12.40;99.90;;;;;;5133950;27;20545;-65
2021/11/08 08:53:12;;;;;;;11.25;6.47;;;12.40;99.90;;;;;;5133802;27;20658;-65
2021/11/08 08:55:41;;;;;;;6.50;3.78;;;12.50;99.90;;;;;;5134083;27;20225;-65
2021/11/08 08:58:09;;;;;;;8.07;3.28;;;12.50;99.90;;;;;;5133385;27;20222;-66
2021/11/08 09:00:37;;;;;;;7.45;2.70;;;12.50;99.90;;;;;;5133676;27;20230;-65
2021/11/08 09:03:04;;;;;;;7.28;3.65;;;12.50;99.90;;;;;;5133463;27;20233;-66
2021/11/08 09:05:31;;;;;;;6.05;2.60;;;12.50;99.90;;;;;;5133868;27;20225;-65
2021/11/08 09:08:01;;;;;;;9.70;3.35;;;12.60;99.90;;;;;;5133569;27;20259;-65
2021/11/08 09:10:31;;;;;;;7.35;3.50;;;12.60;99.90;;;;;;5133691;27;20230;-65
2021/11/08 09:12:59;;;;;;;14.88;7.30;;;12.60;99.90;;;;;;5133405;27;20230;-65
2021/11/08 09:15:28;;;;;;;8.13;5.53;;;12.60;99.90;;;;;;5133951;27;20225;-66
2021/11/08 09:17:56;;;;;;;8.98;4.82;;;12.60;99.90;;;;;;5133599;27;20229;-66
2021/11/08 09:20:23;;;;;;;10.93;3.53;;;12.60;99.90;;;;;;5133349;27;20221;-66
2021/11/08 09:22:52;;;;;;;6.28;3.40;;;12.60;99.90;;;;;;5133886;27;20625;-66
2021/11/08 09:25:22;;;;;;;8.05;3.75;;;12.60;99.90;;;;;;5133180;27;20278;-66
2021/11/08 09:27:51;;;;;;;9.50;3.30;;;12.60;99.90;;;;;;5133572;27;20263;-64
2021/11/08 09:30:22;;;;;;;9.98;4.13;;;12.60;99.90;;;;;;5133164;27;21175;-65
2021/11/08 09:32:50;;;;;;;6.20;3.72;;;12.60;99.90;;;;;;5133701;27;20218;-65
2021/11/08 09:35:17;;;;;;;6.68;4.40;;;12.60;99.90;;;;;;5133244;27;20246;-65
2021/11/08 09:37:46;;;;;;;7.32;4.35;;;12.70;99.90;;;;;;5133616;27;20602;-65
2021/11/08 09:40:16;;;;;;;10.23;3.65;;;12.70;99.90;;;;;;5132980;27;20309;-65
2021/11/08 09:42:45;;;;;;;7.75;3.85;;;12.80;99.90;;;;;;5133504;27;20233;-64
2021/11/08 09:45:13;;;;;;;13.30;5.93;;;12.80;99.90;;;;;;5133058;27;20222;-64
2021/11/08 09:47:43;;;;;;;8.30;4.40;;;12.80;99.90;;;;;;5133436;27;20226;-66
2021/11/08 09:50:15;;;;;;;8.90;4.40;;;12.80;99.90;;;;;;5119778;27;20241;-65
2021/11/08 09:52:44;;;;;;;12.88;3.70;;;12.80;99.90;;;;;;5112627;27;20226;-65
2021/11/08 09:55:14;;;;;;;8.18;4.50;;;12.80;99.90;;;;;;5112518;27;20711;-65
2021/11/08 09:57:41;;;;;;;9.90;4.75;;;12.80;99.90;;;;;;5125517;27;20714;-65
2021/11/08 10:00:19;;;;;;;8.05;4.03;;;12.80;99.90;;;;;;5132590;27;20680;-65
2021/11/08 10:02:52;;;;;;;12.35;5.05;;;12.80;99.90;;;;;;5133372;27;20233;-65
2021/11/08 10:05:21;;;;;;;6.97;5.15;;;12.80;99.90;;;;;;5133079;27;20226;-65
2021/11/08 10:07:49;;;;;;;16.85;5.60;;;12.90;99.90;;;;;;5133259;27;20592;-65
2021/11/08 10:10:16;;;;;;;9.90;4.85;;;12.90;99.90;;;;;;5132636;27;20672;-65
2021/11/08 10:12:43;;;;;;;9.88;4.28;;;12.80;99.90;;;;;;5134541;27;20218;-65
2021/11/08 10:15:13;;;;;;;13.60;5.10;;;12.90;99.90;;;;;;5136582;27;20218;-66
2021/11/08 10:17:40;;;;;;;13.88;5.50;;;12.80;99.90;;;;;;5137137;27;20230;-65
2021/11/08 10:20:08;;;;;;;8.75;4.45;;;12.80;99.90;;;;;;5128274;27;20580;-65
2021/11/08 10:22:37;;;;;;;8.05;4.25;;;12.80;99.90;;;;;;5116503;27;20574;-65
2021/11/08 10:25:05;;;;;;;11.93;4.57;;;12.90;99.90;;;;;;5115982;27;20226;-65
2021/11/08 10:27:43;;;;;;;9.40;4.78;;;12.90;99.90;;;;;;5115997;27;20238;-65
2021/11/08 10:30:24;;;;;;;11.13;5.05;;;12.90;99.90;;;;;;5115849;27;20735;-65
2021/11/08 10:33:09;;;;;;;8.15;4.05;;;12.90;99.90;;;;;;5116176;27;20226;-66
2021/11/08 10:35:38;;;;;;;10.05;4.55;;;13.00;99.90;;;;;;5116052;27;20226;-65
2021/11/08 10:38:10;;;;;;;8.98;5.05;;;13.10;99.90;;;;;;5116083;27;20219;-65
2021/11/08 10:40:44;;;;;;;8.52;4.68;;;13.20;99.90;;;;;;5115914;27;20713;-65
2021/11/08 10:43:11;;;;;;;14.65;4.47;;;13.30;99.90;;;;;;5116026;27;20250;-65
2021/11/08 10:45:49;;;;;;;11.70;4.55;;;13.30;99.90;;;;;;5115659;27;21002;-65
2021/11/08 10:48:21;;;;;;;9.05;3.38;;;13.30;99.90;;;;;;5117419;27;20215;-65
2021/11/08 10:50:50;;;;;;;7.50;3.65;;;13.40;99.90;;;;;;5115710;27;20261;-65
2021/11/08 10:53:19;;;;;;;10.90;4.25;;;13.50;99.90;;;;;;5115277;27;20257;-65
2021/11/08 10:55:50;;;;;;;10.65;3.60;;;13.50;99.90;;;;;;5115975;27;20215;-66
2021/11/08 10:58:20;;;;;;;7.75;3.38;;;13.50;99.90;;;;;;5130632;27;20229;-65
2021/11/08 11:00:54;;;;;;;5.93;2.95;;;13.60;99.90;;;;;;5136244;27;20237;-65
2021/11/08 11:03:23;;;;;;;7.75;3.70;;;13.60;99.90;;;;;;5135775;27;20567;-65
2021/11/08 11:06:00;;;;;;;9.93;3.38;;;13.60;99.90;;;;;;5135152;27;20217;-66
2021/11/08 11:08:28;;;;;;;9.32;3.35;;;13.60;99.90;;;;;;5114923;27;20226;-65
2021/11/08 11:10:57;;;;;;;9.80;3.80;;;13.70;99.90;;;;;;5115479;27;20570;-65
2021/11/08 11:13:25;;;;;;;8.32;3.33;;;13.60;99.90;;;;;;5114747;27;20219;-65
2021/11/08 11:16:00;;;;;;;11.90;5.07;;;13.60;99.90;;;;;;5115476;27;20676;-65
2021/11/08 11:18:29;;;;;;;6.45;4.50;;;13.60;99.90;;;;;;5114965;27;20218;-65
2021/11/08 11:20:57;;;;;;;12.80;6.07;;;13.60;99.90;;;;;;5130061;27;20226;-65
2021/11/08 11:23:27;;;;;;;9.18;6.30;;;13.70;99.90;;;;;;5135195;27;20229;-66
2021/11/08 11:26:01;;;;;;;6.78;4.30;;;13.70;99.90;;;;;;5135606;27;20675;-65
2021/11/08 11:28:33;;;;;;;6.22;3.35;;;13.70;99.90;;;;;;5135289;27;20308;-65
2021/11/08 11:31:02;;;;;;;9.75;3.13;;;13.70;99.90;;;;;;5135583;27;20241;-65
2021/11/08 11:33:29;;;;;;;13.65;5.10;;;13.80;99.90;;;;;;5135364;27;20684;-65
2021/11/08 11:36:05;;;;;;;10.88;5.70;;;13.80;99.90;;;;;;5135842;27;20263;-65
2021/11/08 11:38:36;;;;;;;8.75;4.07;;;13.80;99.90;;;;;;5135044;27;20286;-65
2021/11/08 11:41:06;;;;;;;7.88;3.30;;;13.80;99.90;;;;;;5135440;27;20226;-65
2021/11/08 11:43:39;;;;;;;8.23;3.28;;;13.80;99.90;;;;;;5134916;27;20218;-66
2021/11/08 11:46:14;;;;;;;13.43;4.45;;;13.80;99.90;;;;;;5135618;27;20210;-65
2021/11/08 11:48:45;;;;;;;7.97;4.28;;;13.80;99.90;;;;;;5125629;27;20231;-65
2021/11/08 11:51:15;;;;;;;9.35;3.30;;;13.80;99.90;;;;;;5114678;27;20245;-65
2021/11/08 11:53:43;;;;;;;12.60;6.18;;;13.80;99.90;;;;;;5114398;27;20685;-65
2021/11/08 11:56:11;;;;;;;10.73;4.22;;;13.80;99.90;;;;;;5114660;27;20558;-65
2021/11/08 11:58:38;;;;;;;9.10;3.30;;;13.80;99.90;;;;;;5132016;27;20222;-65
2021/11/08 12:01:10;;;;;;;5.32;3.28;;;13.80;99.90;;;;;;5135098;27;20213;-65
2021/11/08 12:03:38;;;;;;;11.05;6.32;;;13.90;99.90;;;;;;5134775;27;20684;-65
2021/11/08 12:06:06;;;;;;;18.95;7.88;;;13.90;99.90;;;;;;5135039;27;20222;-65
2021/11/08 12:08:37;;;;;;;9.52;4.20;;;13.90;99.90;;;;;;5134536;27;20218;-66
2021/11/08 12:11:05;;;;;;;11.68;6.00;;;14.00;99.90;;;;;;5134928;27;20315;-65
2021/11/08 12:13:35;;;;;;;9.43;3.42;;;14.00;99.90;;;;;;5134516;27;20230;-65
2021/11/08 12:16:17;;;;;;;13.70;5.70;;;14.00;99.90;;;;;;5134781;27;20228;-65
2021/11/08 12:18:46;;;;;;;11.52;4.30;;;14.00;99.90;;;;;;5134338;27;20218;-65
2021/11/08 12:21:21;;;;;;;7.82;3.63;;;14.00;99.90;;;;;;5116929;27;20219;-65
2021/11/08 12:23:48;;;;;;;6.25;3.78;;;14.00;99.90;;;;;;5113682;27;20230;-65
2021/11/08 12:26:20;;;;;;;7.82;3.83;;;14.00;99.90;;;;;;5113780;27;20218;-66
2021/11/08 12:28:48;;;;;;;13.40;4.40;;;14.00;99.90;;;;;;5113510;27;20226;-65
2021/11/08 12:31:22;;;;;;;12.13;4.40;;;14.10;99.90;;;;;;5113883;27;20473;-64
2021/11/08 12:34:00;;;;;;;9.03;4.00;;;14.10;99.90;;;;;;5113566;27;20868;-66
2021/11/08 12:36:28;;;;;;;16.27;7.70;;;14.10;99.90;;;;;;5112969;27;20488;-65
2021/11/08 12:38:58;;;;;;;8.63;4.38;;;14.10;99.90;;;;;;5113826;27;20456;-65
2021/11/08 12:41:44;;;;;;;9.75;3.90;;;14.10;99.90;;;;;;5113165;27;20230;-66
2021/11/08 12:44:11;;;;;;;10.38;3.05;;;14.10;99.90;;;;;;5113811;27;20238;-65
2021/11/08 12:46:44;;;;;;;9.27;4.65;;;14.10;99.90;;;;;;5120713;27;20230;-65
2021/11/08 12:49:14;;;;;;;5.53;2.97;;;14.20;99.90;;;;;;5117787;27;20226;-65
2021/11/08 12:51:51;;;;;;;12.57;6.10;;;14.10;99.90;;;;;;5113170;27;20230;-65
2021/11/08 12:54:19;;;;;;;10.23;3.80;;;14.20;99.90;;;;;;5113423;27;20222;-65
2021/11/08 12:56:47;;;;;;;10.63;6.25;;;14.10;99.90;;;;;;5115489;27;20468;-65
2021/11/08 12:59:21;;;;;;;12.45;4.18;;;14.20;99.90;;;;;;5133568;27;20328;-65
2021/11/08 13:01:53;;;;;;;9.35;3.22;;;14.10;99.90;;;;;;5133562;27;20548;-65
2021/11/08 13:04:31;;;;;;;9.75;4.63;;;14.20;99.90;;;;;;5120225;27;20218;-65
2021/11/08 13:07:06;;;;;;;8.05;3.30;;;14.10;99.90;;;;;;5113122;27;21022;-65
2021/11/08 13:09:40;;;;;;;8.65;3.42;;;14.20;99.90;;;;;;5113192;27;20265;-66
2021/11/08 13:12:12;;;;;;;8.13;3.50;;;14.20;99.90;;;;;;5112937;27;20219;-65
2021/11/08 13:14:39;;;;;;;12.35;5.40;;;14.20;99.90;;;;;;5113278;27;20242;-65
2021/11/08 13:17:10;;;;;;;8.82;5.95;;;14.10;99.90;;;;;;5112948;27;20563;-65
2021/11/08 13:19:44;;;;;;;11.30;4.50;;;14.10;99.90;;;;;;5117059;27;20229;-66
2021/11/08 13:22:20;;;;;;;9.77;4.15;;;14.10;99.90;;;;;;5133462;27;20479;-65
2021/11/08 13:25:00;;;;;;;8.52;4.35;;;14.20;99.90;;;;;;5133107;27;20234;-65
2021/11/08 13:27:27;;;;;;;7.73;3.07;;;14.20;99.90;;;;;;5133465;27;20603;-65
2021/11/08 13:29:56;;;;;;;9.18;4.40;;;14.10;99.90;;;;;;5133245;27;20471;-65
2021/11/08 13:32:27;;;;;;;8.70;5.43;;;14.10;99.90;;;;;;5133445;27;20300;-64
2021/11/08 13:34:55;;;;;;;8.18;2.83;;;14.10;99.90;;;;;;5133250;27;20221;-65
2021/11/08 13:37:22;;;;;;;13.95;4.35;;;14.20;99.90;;;;;;5133645;27;20557;-65
2021/11/08 13:39:51;;;;;;;8.55;4.40;;;14.10;99.90;;;;;;5132934;27;20234;-65
2021/11/08 13:42:22;;;;;;;9.47;3.80;;;14.10;99.90;;;;;;5133467;27;20222;-65
2021/11/08 13:44:52;;;;;;;8.93;4.28;;;14.10;99.90;;;;;;5133229;27;20510;-65
2021/11/08 13:47:19;;;;;;;10.15;4.25;;;14.20;99.90;;;;;;5133907;27;20218;-65
2021/11/08 13:49:47;;;;;;;7.35;4.10;;;14.20;99.90;;;;;;5119025;27;20673;-65
2021/11/08 13:52:15;;;;;;;20.65;13.10;;;14.20;99.90;;;;;;5116998;27;20644;-65
2021/11/08 13:54:42;;;;;;;8.70;4.33;;;14.20;99.90;;;;;;5116778;27;20640;-65
2021/11/08 13:57:12;;;;;;;14.73;8.23;;;14.20;99.90;;;;;;5129009;27;20965;-65
2021/11/08 13:59:43;;;;;;;5.80;3.40;;;14.20;99.90;;;;;;5137264;27;20237;-64
2021/11/08 14:02:11;;;;;;;5.65;3.60;;;14.20;99.90;;;;;;5135217;27;20451;-65
2021/11/08 14:04:43;;;;;;;8.70;3.92;;;14.20;99.90;;;;;;5137276;27;20681;-65
2021/11/08 14:07:13;;;;;;;8.70;2.90;;;14.20;99.90;;;;;;5136920;27;20308;-66
2021/11/08 14:09:43;;;;;;;7.43;2.73;;;14.20;99.90;;;;;;5136616;27;20980;-65
2021/11/08 14:12:13;;;;;;;9.13;3.80;;;14.20;99.90;;;;;;5121069;27;20985;-65